Weather observations for the past three days for
Cold Bay, Cold Bay Airport
| Date | Time (akdt) | Wind (mph) | Vis. (mi.) | Weather | Sky Cond. | Temperature (ºF) | Relative Humidity | Wind Chill (°F) | Heat Index (°F) | Pressure | Precipitation (in) | ||||||
|---|---|---|---|---|---|---|---|---|---|---|---|---|---|---|---|---|---|
| Air | Dwpt | 6 hour | altimeter (in) | sea level (mb) | 1 hr | 3 hr | 6 hr | ||||||||||
| Max. | Min. | ||||||||||||||||
| 10 | 13:53 | W 8 | 10.00 | Overcast | BKN034 OVC045 | 37 | 23 | 57% | 32 | 29.64 | 1003.9 | ||||||
| 10 | 12:53 | W 13 G 17 | 10.00 | Overcast | OVC033 | 35.1 | 21 | 57% | 27 | 29.64 | 1003.9 | ||||||
| 10 | 11:53 | W 12 | 10.00 | Overcast | OVC034 | 34 | 19.9 | 56% | 26 | 29.63 | 1003.6 | ||||||
| 10 | 10:53 | NW 12 | 10.00 | Overcast | SCT025 OVC033 | 33.1 | 21.9 | 64% | 25 | 29.64 | 1003.9 | ||||||
| 10 | 09:53 | W 10 | 10.00 | Overcast | SCT021 OVC029 | 30.9 | 23 | 30.9 | 28.9 | 72% | 23 | 29.63 | 1003.5 | ||||
| 10 | 08:53 | NW 10 | 10.00 | Overcast | OVC023 | 30 | 21.9 | 72% | 22 | 29.62 | 1003.0 | ||||||
| 10 | 07:53 | NW 10 | 10.00 | Overcast | OVC023 | 30 | 23 | 75% | 22 | 29.61 | 1002.7 | ||||||
| 10 | 06:53 | NW 12 | 10.00 | Overcast | OVC021 | 28.9 | 24.1 | 82% | 20 | 29.61 | 1002.8 | ||||||
| 10 | 05:53 | W 12 | 10.00 | Overcast | OVC022 | 28.9 | 21.9 | 75% | 20 | 29.62 | 1003.2 | ||||||
| 10 | 04:53 | W 15 | 10.00 | Overcast | OVC023 | 28.9 | 21 | 72% | 18 | 29.62 | 1003.3 | ||||||
| 10 | 03:53 | NW 16 | 10.00 | Overcast | OVC025 | 28.9 | 21.9 | 30.9 | 28.9 | 75% | 18 | 29.63 | 1003.4 | ||||
| 10 | 02:53 | NW 17 | 10.00 | Overcast | OVC027 | 28.9 | 21 | 72% | 18 | 29.62 | 1003.1 | ||||||
| 10 | 01:53 | W 14 | 10.00 | Overcast | OVC023 | 30 | 21.9 | 72% | 20 | 29.61 | 1002.7 | ||||||
| 10 | 00:53 | NW 13 | 10.00 | Overcast | OVC022 | 30 | 23 | 75% | 21 | 29.61 | 1002.8 | ||||||
| 09 | 23:53 | NW 16 | 10.00 | Overcast | OVC023 | 30.9 | 23 | 72% | 21 | 29.61 | 1002.6 | ||||||
| 09 | 22:53 | W 13 | 10.00 | Overcast | OVC020 | 30.9 | 23 | 72% | 22 | 29.6 | 1002.6 | ||||||
| 09 | 21:53 | NW 17 | 10.00 | Overcast | OVC019 | 30.9 | 24.1 | 39 | 30.9 | 76% | 20 | 29.59 | 1002.2 | ||||
| 09 | 20:53 | NW 14 | 10.00 | Overcast | OVC018 | 32 | 24.1 | 73% | 23 | 29.58 | 1001.7 | ||||||
| 09 | 19:53 | NW 13 | 10.00 | Overcast | OVC018 | 33.1 | 25 | 72% | 25 | 29.57 | 1001.5 | ||||||
| 09 | 18:53 | NW 16 | 10.00 | Overcast | OVC013 | 34 | 27 | 76% | 24 | 29.57 | 1001.4 | ||||||
| 09 | 17:53 | NW 17 | 10.00 | Overcast | OVC013 | 35.1 | 28 | 76% | 26 | 29.56 | 1000.9 | ||||||
| 09 | 16:53 | NW 14 | 10.00 | Overcast | OVC012 | 36 | 28.9 | 76% | 28 | 29.56 | 1001.0 | ||||||
| 09 | 15:53 | NW 18 G 25 | 7.00 | Overcast | OVC015 | 39 | 30 | 39.9 | 34 | 70% | 30 | 29.55 | 1000.7 | ||||
| 09 | 14:53 | NW 16 | 8.00 | Mostly Cloudy | BKN015 | 37.9 | 28.9 | 70% | 30 | 29.54 | 1000.5 | ||||||
| 09 | 13:53 | NW 14 G 21 | 10.00 | Mostly Cloudy | BKN017 | 37 | 28.9 | 73% | 29 | 29.54 | 1000.4 | ||||||
| 09 | 12:53 | W 12 | 10.00 | Overcast | OVC013 | 36 | 28.9 | 76% | 29 | 29.54 | 1000.3 | ||||||
| 09 | 11:53 | W 13 | 10.00 | Overcast | OVC014 | 35.1 | 28 | 76% | 27 | 29.54 | 1000.3 | ||||||
| 09 | 10:53 | NW 13 | 5.00 | Overcast with Haze | OVC016 | 34 | 28 | 79% | 26 | 29.54 | 1000.5 | ||||||
| 09 | 09:53 | NW 14 | 7.00 | Overcast | OVC018 | 34 | 27 | 34 | 30 | 76% | 25 | 29.54 | 1000.4 | ||||
| 09 | 08:53 | NW 14 | 10.00 | Overcast | OVC017 | 33.1 | 28 | 82% | 24 | 29.54 | 1000.4 | ||||||
| 09 | 07:53 | NW 13 | 10.00 | Overcast | OVC016 | 33.1 | 27 | 78% | 25 | 29.55 | 1000.6 | ||||||
| 09 | 06:53 | NW 13 | 10.00 | Overcast | OVC015 | 32 | 27 | 82% | 23 | 29.56 | 1001.0 | ||||||
| 09 | 05:53 | NW 15 | 10.00 | Overcast | OVC018 | 30.9 | 25 | 79% | 21 | 29.57 | 1001.4 | ||||||
| 09 | 04:53 | NW 10 | 10.00 | Overcast | OVC019 | 30.9 | 26.1 | 82% | 23 | 29.59 | 1002.0 | ||||||
| 09 | 03:53 | NW 12 | 10.00 | Overcast | OVC019 | 30.9 | 25 | 32 | 30.9 | 79% | 22 | 29.6 | 1002.4 | ||||
| 09 | 02:53 | NW 10 | 10.00 | Overcast | OVC018 | 32 | 26.1 | 79% | 24 | 29.61 | 1002.9 | ||||||
| 09 | 01:53 | NW 9 | 10.00 | Overcast | OVC018 | 30.9 | 25 | 79% | 24 | 29.63 | 1003.4 | ||||||
| 09 | 00:53 | NW 9 | 10.00 | Overcast | OVC015 | 30.9 | 26.1 | 82% | 24 | 29.64 | 1003.9 | ||||||
| 08 | 23:53 | NW 7 | 10.00 | Overcast | OVC013 | 32 | 27 | 82% | 26 | 29.65 | 1004.0 | ||||||
| 08 | 22:53 | NW 8 | 10.00 | Overcast | OVC006 | 30.9 | 28.9 | 92% | 24 | 29.65 | 1004.3 | ||||||
| 08 | 21:53 | NW 13 | 10.00 | Overcast | OVC008 | 32 | 28.9 | 36 | 32 | 88% | 23 | 29.65 | 1004.3 | ||||
| 08 | 20:53 | NW 12 | 10.00 | Overcast | OVC011 | 34 | 28.9 | 82% | 26 | 29.65 | 1004.3 | ||||||
| 08 | 19:53 | NW 9 | 10.00 | Overcast | OVC010 | 34 | 28.9 | 82% | 27 | 29.66 | 1004.5 | ||||||
| 08 | 18:53 | NW 9 | 10.00 | Overcast | OVC011 | 34 | 28 | 79% | 27 | 29.68 | 1005.0 | ||||||
| 08 | 17:53 | NW 10 | 6.00 | Overcast with Haze | OVC012 | 35.1 | 28.9 | 78% | 28 | 29.68 | 1005.3 | ||||||
| 08 | 16:53 | NW 9 | 10.00 | Overcast | OVC013 | 35.1 | 28.9 | 78% | 29 | 29.7 | 1005.7 | ||||||
| 08 | 15:53 | NW 14 | 10.00 | Overcast | OVC014 | 36 | 28 | 36 | 30.9 | 73% | 28 | 29.71 | 1006.2 | ||||
| 08 | 14:53 | NW 10 | 10.00 | Overcast | OVC014 | 35.1 | 27 | 72% | 28 | 29.72 | 1006.5 | ||||||
| 08 | 13:53 | NW 10 | 8.00 | Overcast | OVC014 | 36 | 28 | 73% | 29 | 29.73 | 1006.9 | ||||||
| 08 | 12:53 | W 9 | 10.00 | Overcast | OVC012 | 33.1 | 27 | 78% | 26 | 29.75 | 1007.4 | ||||||
| 08 | 11:53 | NW 9 | 7.00 | Overcast | OVC012 | 32 | 26.1 | 79% | 25 | 29.76 | 1007.7 | ||||||
| 08 | 10:53 | N 9 | 10.00 | Overcast | OVC013 | 32 | 25 | 75% | 25 | 29.76 | 1008.0 | ||||||
| 08 | 09:53 | NW 10 | 10.00 | Overcast | OVC011 | 30.9 | 26.1 | 30.9 | 28.9 | 82% | 23 | 29.77 | 1008.4 | ||||
| 08 | 08:53 | NW 9 | 10.00 | Overcast | OVC010 | 30 | 26.1 | 85% | 22 | 29.78 | 1008.7 | ||||||
| 08 | 07:53 | NW 12 | 10.00 | Overcast | OVC007 | 30 | 27 | 88% | 21 | 29.79 | 1008.7 | ||||||
| 08 | 06:53 | N 6 | 10.00 | Overcast | OVC006 | 28.9 | 28 | 96% | 23 | 29.8 | 1009.1 | ||||||
| 08 | 05:53 | N 8 | 10.00 | Overcast | OVC005 | 28.9 | 27 | 92% | 22 | 29.81 | 1009.4 | ||||||
| 08 | 04:53 | N 10 | 10.00 | Overcast | OVC004 | 28.9 | 27 | 92% | 20 | 29.82 | 1009.8 | ||||||
| 08 | 03:53 | N 9 | 10.00 | Overcast | OVC004 | 28.9 | 28 | 30.9 | 28.9 | 96% | 21 | 29.83 | 1010.2 | ||||
| 08 | 02:53 | N 9 | 10.00 | Overcast | OVC005 | 28.9 | 27 | 92% | 21 | 29.85 | 1010.8 | ||||||
| 08 | 01:53 | NW 10 | 10.00 | Overcast | OVC005 | 28.9 | 27 | 92% | 20 | 29.86 | 1011.1 | ||||||
| 08 | 00:53 | N 12 | 10.00 | Overcast | OVC005 | 28.9 | 27 | 92% | 20 | 29.86 | 1011.1 | ||||||
| 07 | 23:53 | N 10 | 10.00 | Overcast | OVC004 | 28.9 | 27 | 92% | 20 | 29.87 | 1011.7 | ||||||
| 07 | 22:53 | NW 8 | 10.00 | Overcast | OVC003 | 30 | 28 | 92% | 23 | 29.87 | 1011.7 | ||||||
| 07 | 21:53 | NW 10 | 10.00 | Overcast | OVC004 | 30.9 | 28.9 | 44.1 | 30.9 | 92% | 23 | 29.87 | 1011.5 | ||||
| 07 | 20:53 | N 13 | 10.00 | Overcast | OVC007 | 33.1 | 30 | 89% | 25 | 29.87 | 1011.6 | ||||||
| 07 | 19:53 | N 12 | 10.00 | Partly Cloudy | SCT009 | 36 | 30 | 79% | 29 | 29.87 | 1011.6 | ||||||
| 07 | 18:53 | N 13 | 10.00 | Fair | CLR | 41 | 32 | 70% | 34 | 29.87 | 1011.8 | ||||||
| 07 | 17:53 | N 16 | 10.00 | Fair | CLR | 42.1 | 32 | 68% | 35 | 29.88 | 1012.1 | ||||||
| 07 | 16:53 | NW 15 G 22 | 10.00 | Fair | CLR | 43 | 30.9 | 63% | 36 | 29.9 | 1012.6 | ||||||
| Date | Time (akdt) | Wind (mph) | Vis. (mi.) | Weather | Sky Cond. | Air | Dwpt | Max. | Min. | Relative Humidity | Wind Chill (°F) | Heat Index (°F) | altimeter (in) | sea level (mb) | 1 hr | 3 hr | 6 hr |
| 6 hour | |||||||||||||||||
| Temperature (ºF) | Pressure | Precipitation (in) | |||||||||||||||